sensor_id;sensor_type;location;lat;lon;timestamp;temperature;humidity
792;DHT22;379;49.022;12.148;2022-07-10T00:00:08;14.60;99.90
792;DHT22;379;49.022;12.148;2022-07-10T00:02:35;14.50;99.90
792;DHT22;379;49.022;12.148;2022-07-10T00:05:02;14.30;99.90
792;DHT22;379;49.022;12.148;2022-07-10T00:07:29;14.20;99.90
792;DHT22;379;49.022;12.148;2022-07-10T00:09:57;14.10;99.90
792;DHT22;379;49.022;12.148;2022-07-10T00:12:24;14.10;99.90
792;DHT22;379;49.022;12.148;2022-07-10T00:14:51;14.10;99.90
792;DHT22;379;49.022;12.148;2022-07-10T00:17:18;14.10;99.90
792;DHT22;379;49.022;12.148;2022-07-10T00:19:45;14.10;99.90
792;DHT22;379;49.022;12.148;2022-07-10T00:22:12;14.10;99.90
792;DHT22;379;49.022;12.148;2022-07-10T00:24:39;14.10;99.90
792;DHT22;379;49.022;12.148;2022-07-10T00:27:07;14.10;99.90
792;DHT22;379;49.022;12.148;2022-07-10T00:29:34;14.10;99.90
792;DHT22;379;49.022;12.148;2022-07-10T00:32:01;14.10;99.90
792;DHT22;379;49.022;12.148;2022-07-10T00:34:27;14.10;99.90
792;DHT22;379;49.022;12.148;2022-07-10T00:36:54;14.00;99.90
792;DHT22;379;49.022;12.148;2022-07-10T00:39:21;14.00;99.90
792;DHT22;379;49.022;12.148;2022-07-10T00:41:48;13.90;99.90
792;DHT22;379;49.022;12.148;2022-07-10T00:44:16;13.80;99.90
792;DHT22;379;49.022;12.148;2022-07-10T00:46:43;13.80;99.90
792;DHT22;379;49.022;12.148;2022-07-10T00:49:09;13.80;99.90
792;DHT22;379;49.022;12.148;2022-07-10T00:51:37;13.80;99.90
792;DHT22;379;49.022;12.148;2022-07-10T00:54:04;13.80;99.90
792;DHT22;379;49.022;12.148;2022-07-10T00:56:32;13.80;99.90
792;DHT22;379;49.022;12.148;2022-07-10T00:58:58;13.80;99.90
792;DHT22;379;49.022;12.148;2022-07-10T01:01:28;13.80;99.90
792;DHT22;379;49.022;12.148;2022-07-10T01:03:54;13.90;99.90
792;DHT22;379;49.022;12.148;2022-07-10T01:06:21;13.90;99.90
792;DHT22;379;49.022;12.148;2022-07-10T01:08:48;13.90;99.90
792;DHT22;379;49.022;12.148;2022-07-10T01:11:15;14.00;99.90
792;DHT22;379;49.022;12.148;2022-07-10T01:13:42;14.00;99.90
792;DHT22;379;49.022;12.148;2022-07-10T01:16:09;14.00;99.90
792;DHT22;379;49.022;12.148;2022-07-10T01:18:37;13.90;99.90
792;DHT22;379;49.022;12.148;2022-07-10T01:21:06;13.80;99.90
792;DHT22;379;49.022;12.148;2022-07-10T01:23:32;13.80;99.90
792;DHT22;379;49.022;12.148;2022-07-10T01:25:59;13.90;99.90
792;DHT22;379;49.022;12.148;2022-07-10T01:28:29;13.90;99.90
792;DHT22;379;49.022;12.148;2022-07-10T01:30:56;13.90;99.90
792;DHT22;379;49.022;12.148;2022-07-10T01:33:23;13.90;99.90
792;DHT22;379;49.022;12.148;2022-07-10T01:35:50;13.90;99.90
792;DHT22;379;49.022;12.148;2022-07-10T01:38:18;13.80;99.90
792;DHT22;379;49.022;12.148;2022-07-10T01:40:44;13.80;99.90
792;DHT22;379;49.022;12.148;2022-07-10T01:43:11;13.80;99.90
792;DHT22;379;49.022;12.148;2022-07-10T01:45:38;13.70;99.90
792;DHT22;379;49.022;12.148;2022-07-10T01:48:05;13.70;99.90
792;DHT22;379;49.022;12.148;2022-07-10T01:50:32;13.70;99.90
792;DHT22;379;49.022;12.148;2022-07-10T01:52:59;13.80;99.90
792;DHT22;379;49.022;12.148;2022-07-10T01:55:28;13.80;99.90
792;DHT22;379;49.022;12.148;2022-07-10T01:57:54;13.80;99.90
792;DHT22;379;49.022;12.148;2022-07-10T02:00:21;13.70;99.90
792;DHT22;379;49.022;12.148;2022-07-10T02:02:49;13.60;99.90
792;DHT22;379;49.022;12.148;2022-07-10T02:05:30;13.50;99.90
792;DHT22;379;49.022;12.148;2022-07-10T02:07:57;13.50;99.90
792;DHT22;379;49.022;12.148;2022-07-10T02:10:24;13.40;99.90
792;DHT22;379;49.022;12.148;2022-07-10T02:12:52;13.20;99.90
792;DHT22;379;49.022;12.148;2022-07-10T02:15:19;13.20;99.90
792;DHT22;379;49.022;12.148;2022-07-10T02:17:45;13.20;99.90
792;DHT22;379;49.022;12.148;2022-07-10T02:20:12;13.20;99.90
792;DHT22;379;49.022;12.148;2022-07-10T02:22:39;13.20;99.90
792;DHT22;379;49.022;12.148;2022-07-10T02:25:06;13.20;99.90
792;DHT22;379;49.022;12.148;2022-07-10T02:27:33;13.20;99.90
792;DHT22;379;49.022;12.148;2022-07-10T02:30:02;13.20;99.90
792;DHT22;379;49.022;12.148;2022-07-10T02:32:29;13.20;99.90
792;DHT22;379;49.022;12.148;2022-07-10T02:34:55;13.20;99.90
792;DHT22;379;49.022;12.148;2022-07-10T02:37:22;13.20;99.90
792;DHT22;379;49.022;12.148;2022-07-10T02:39:49;13.10;99.90
792;DHT22;379;49.022;12.148;2022-07-10T02:42:15;13.10;99.90
792;DHT22;379;49.022;12.148;2022-07-10T02:44:42;13.10;99.90
792;DHT22;379;49.022;12.148;2022-07-10T02:47:10;13.00;99.90
792;DHT22;379;49.022;12.148;2022-07-10T02:49:37;13.00;99.90
792;DHT22;379;49.022;12.148;2022-07-10T02:52:04;12.90;99.90
792;DHT22;379;49.022;12.148;2022-07-10T02:54:31;12.90;99.90
792;DHT22;379;49.022;12.148;2022-07-10T02:56:58;12.90;99.90
792;DHT22;379;49.022;12.148;2022-07-10T02:59:24;12.90;99.90
792;DHT22;379;49.022;12.148;2022-07-10T03:01:52;12.90;99.90
792;DHT22;379;49.022;12.148;2022-07-10T03:04:20;12.90;99.90
792;DHT22;379;49.022;12.148;2022-07-10T03:06:46;12.90;99.90
792;DHT22;379;49.022;12.148;2022-07-10T03:09:13;12.90;99.90
792;DHT22;379;49.022;12.148;2022-07-10T03:11:40;13.00;99.90
792;DHT22;379;49.022;12.148;2022-07-10T03:14:07;13.10;99.90
792;DHT22;379;49.022;12.148;2022-07-10T03:16:33;13.10;99.90
792;DHT22;379;49.022;12.148;2022-07-10T03:19:01;13.10;99.90
792;DHT22;379;49.022;12.148;2022-07-10T03:21:29;13.10;99.90
792;DHT22;379;49.022;12.148;2022-07-10T03:23:56;13.10;99.90
792;DHT22;379;49.022;12.148;2022-07-10T03:26:23;13.10;99.90
792;DHT22;379;49.022;12.148;2022-07-10T03:28:49;13.00;99.90
792;DHT22;379;49.022;12.148;2022-07-10T03:31:16;13.00;99.90
792;DHT22;379;49.022;12.148;2022-07-10T03:33:43;13.00;99.90
792;DHT22;379;49.022;12.148;2022-07-10T03:36:10;13.00;99.90
792;DHT22;379;49.022;12.148;2022-07-10T03:38:40;13.00;99.90
792;DHT22;379;49.022;12.148;2022-07-10T03:41:06;13.00;99.90
792;DHT22;379;49.022;12.148;2022-07-10T03:43:33;12.90;99.90
792;DHT22;379;49.022;12.148;2022-07-10T03:46:00;12.90;99.90
792;DHT22;379;49.022;12.148;2022-07-10T03:48:27;12.90;99.90
792;DHT22;379;49.022;12.148;2022-07-10T03:50:53;12.90;99.90
792;DHT22;379;49.022;12.148;2022-07-10T03:53:20;12.90;99.90
792;DHT22;379;49.022;12.148;2022-07-10T03:55:48;12.90;99.90
792;DHT22;379;49.022;12.148;2022-07-10T03:58:15;12.90;99.90
792;DHT22;379;49.022;12.148;2022-07-10T04:00:41;12.90;99.90
792;DHT22;379;49.022;12.148;2022-07-10T04:03:09;12.80;99.90
792;DHT22;379;49.022;12.148;2022-07-10T04:05:36;12.80;99.90
792;DHT22;379;49.022;12.148;2022-07-10T04:08:03;12.80;99.90
792;DHT22;379;49.022;12.148;2022-07-10T04:10:31;12.80;99.90
792;DHT22;379;49.022;12.148;2022-07-10T04:12:59;12.90;99.90
792;DHT22;379;49.022;12.148;2022-07-10T04:15:26;13.00;99.90
792;DHT22;379;49.022;12.148;2022-07-10T04:17:54;13.10;99.90
792;DHT22;379;49.022;12.148;2022-07-10T04:20:21;13.20;99.90
792;DHT22;379;49.022;12.148;2022-07-10T04:22:48;13.30;99.90
792;DHT22;379;49.022;12.148;2022-07-10T04:25:15;13.50;99.90
792;DHT22;379;49.022;12.148;2022-07-10T04:27:42;13.60;99.90
792;DHT22;379;49.022;12.148;2022-07-10T04:30:10;13.60;99.90
792;DHT22;379;49.022;12.148;2022-07-10T04:32:37;13.70;99.90
792;DHT22;379;49.022;12.148;2022-07-10T04:35:04;14.30;99.90
792;DHT22;379;49.022;12.148;2022-07-10T04:37:31;14.70;99.90
792;DHT22;379;49.022;12.148;2022-07-10T04:39:59;15.50;99.90
792;DHT22;379;49.022;12.148;2022-07-10T04:42:26;16.50;99.90
792;DHT22;379;49.022;12.148;2022-07-10T04:44:53;17.50;99.90
792;DHT22;379;49.022;12.148;2022-07-10T04:47:21;18.20;99.90
792;DHT22;379;49.022;12.148;2022-07-10T04:49:48;17.90;94.90
792;DHT22;379;49.022;12.148;2022-07-10T04:52:15;17.50;94.30
792;DHT22;379;49.022;12.148;2022-07-10T04:54:41;17.00;93.10
792;DHT22;379;49.022;12.148;2022-07-10T04:57:08;16.70;94.80
792;DHT22;379;49.022;12.148;2022-07-10T04:59:35;17.00;93.70
792;DHT22;379;49.022;12.148;2022-07-10T05:02:02;17.80;93.50
792;DHT22;379;49.022;12.148;2022-07-10T05:04:30;19.20;90.10
792;DHT22;379;49.022;12.148;2022-07-10T05:06:57;20.20;81.20
792;DHT22;379;49.022;12.148;2022-07-10T05:09:23;20.90;75.40
792;DHT22;379;49.022;12.148;2022-07-10T05:11:50;20.50;73.50
792;DHT22;379;49.022;12.148;2022-07-10T05:14:17;19.80;73.60
792;DHT22;379;49.022;12.148;2022-07-10T05:16:44;19.20;75.70
792;DHT22;379;49.022;12.148;2022-07-10T05:19:10;18.60;76.50
792;DHT22;379;49.022;12.148;2022-07-10T05:21:38;18.10;78.50
792;DHT22;379;49.022;12.148;2022-07-10T05:24:05;18.80;81.00
792;DHT22;379;49.022;12.148;2022-07-10T05:26:32;19.70;78.90
792;DHT22;379;49.022;12.148;2022-07-10T05:28:59;20.60;77.30
792;DHT22;379;49.022;12.148;2022-07-10T05:31:25;20.60;71.40
792;DHT22;379;49.022;12.148;2022-07-10T05:33:52;19.90;70.80
792;DHT22;379;49.022;12.148;2022-07-10T05:36:19;19.30;73.20
792;DHT22;379;49.022;12.148;2022-07-10T05:38:47;18.60;74.00
792;DHT22;379;49.022;12.148;2022-07-10T05:41:14;18.00;76.50
792;DHT22;379;49.022;12.148;2022-07-10T05:43:41;17.40;77.60
792;DHT22;379;49.022;12.148;2022-07-10T05:46:08;16.90;79.50
792;DHT22;379;49.022;12.148;2022-07-10T05:48:34;16.60;80.10
792;DHT22;379;49.022;12.148;2022-07-10T05:51:02;16.40;81.30
792;DHT22;379;49.022;12.148;2022-07-10T05:53:28;16.30;81.60
792;DHT22;379;49.022;12.148;2022-07-10T05:55:59;16.30;82.40
792;DHT22;379;49.022;12.148;2022-07-10T05:58:26;16.20;82.50
792;DHT22;379;49.022;12.148;2022-07-10T06:00:53;16.10;83.40
792;DHT22;379;49.022;12.148;2022-07-10T06:03:19;15.90;83.60
792;DHT22;379;49.022;12.148;2022-07-10T06:05:46;15.70;84.30
792;DHT22;379;49.022;12.148;2022-07-10T06:08:13;15.70;85.20
792;DHT22;379;49.022;12.148;2022-07-10T06:10:40;15.70;85.50
792;DHT22;379;49.022;12.148;2022-07-10T06:13:10;15.90;85.10
792;DHT22;379;49.022;12.148;2022-07-10T06:15:37;16.00;83.60
792;DHT22;379;49.022;12.148;2022-07-10T06:18:04;16.00;82.10
792;DHT22;379;49.022;12.148;2022-07-10T06:20:31;15.90;81.70
792;DHT22;379;49.022;12.148;2022-07-10T06:22:58;15.80;82.30
792;DHT22;379;49.022;12.148;2022-07-10T06:25:25;15.80;82.10
792;DHT22;379;49.022;12.148;2022-07-10T06:27:52;15.80;81.70
792;DHT22;379;49.022;12.148;2022-07-10T06:30:20;15.80;80.80
792;DHT22;379;49.022;12.148;2022-07-10T06:32:47;15.80;80.60
792;DHT22;379;49.022;12.148;2022-07-10T06:35:13;15.70;81.10
792;DHT22;379;49.022;12.148;2022-07-10T06:37:40;15.70;80.90
792;DHT22;379;49.022;12.148;2022-07-10T06:40:09;15.70;81.40
792;DHT22;379;49.022;12.148;2022-07-10T06:42:36;15.70;78.90
792;DHT22;379;49.022;12.148;2022-07-10T06:45:03;15.80;77.80
792;DHT22;379;49.022;12.148;2022-07-10T06:47:31;15.80;77.30
792;DHT22;379;49.022;12.148;2022-07-10T06:50:16;16.00;76.80
792;DHT22;379;49.022;12.148;2022-07-10T06:52:43;16.50;76.50
792;DHT22;379;49.022;12.148;2022-07-10T06:55:10;17.30;74.10
792;DHT22;379;49.022;12.148;2022-07-10T06:57:38;18.00;71.40
792;DHT22;379;49.022;12.148;2022-07-10T07:00:06;18.50;69.30
792;DHT22;379;49.022;12.148;2022-07-10T07:02:34;18.60;68.40
792;DHT22;379;49.022;12.148;2022-07-10T07:05:01;18.40;68.30
792;DHT22;379;49.022;12.148;2022-07-10T07:07:27;18.60;68.80
792;DHT22;379;49.022;12.148;2022-07-10T07:09:54;19.10;68.30
792;DHT22;379;49.022;12.148;2022-07-10T07:12:21;19.40;65.30
792;DHT22;379;49.022;12.148;2022-07-10T07:14:48;19.60;65.10
792;DHT22;379;49.022;12.148;2022-07-10T07:17:15;19.80;64.30
792;DHT22;379;49.022;12.148;2022-07-10T07:19:48;19.80;64.10
792;DHT22;379;49.022;12.148;2022-07-10T07:22:33;19.60;63.90
792;DHT22;379;49.022;12.148;2022-07-10T07:25:17;19.30;64.90
792;DHT22;379;49.022;12.148;2022-07-10T07:27:44;19.00;65.80
792;DHT22;379;49.022;12.148;2022-07-10T07:30:13;18.70;66.60
792;DHT22;379;49.022;12.148;2022-07-10T07:32:42;18.40;67.80
792;DHT22;379;49.022;12.148;2022-07-10T07:35:11;18.80;68.80
792;DHT22;379;49.022;12.148;2022-07-10T07:37:39;19.60;69.60
792;DHT22;379;49.022;12.148;2022-07-10T07:40:08;20.10;65.70
792;DHT22;379;49.022;12.148;2022-07-10T07:42:36;20.10;67.30
792;DHT22;379;49.022;12.148;2022-07-10T07:45:03;19.80;65.50
792;DHT22;379;49.022;12.148;2022-07-10T07:47:31;19.80;64.70
792;DHT22;379;49.022;12.148;2022-07-10T07:50:10;19.80;63.20
792;DHT22;379;49.022;12.148;2022-07-10T07:52:36;19.80;63.80
792;DHT22;379;49.022;12.148;2022-07-10T07:55:04;20.30;64.00
792;DHT22;379;49.022;12.148;2022-07-10T07:57:31;21.00;61.30
792;DHT22;379;49.022;12.148;2022-07-10T07:59:57;21.00;59.60
792;DHT22;379;49.022;12.148;2022-07-10T08:02:24;20.60;59.20
792;DHT22;379;49.022;12.148;2022-07-10T08:04:51;20.30;58.60
792;DHT22;379;49.022;12.148;2022-07-10T08:07:19;20.10;58.70
792;DHT22;379;49.022;12.148;2022-07-10T08:09:45;20.30;57.90
792;DHT22;379;49.022;12.148;2022-07-10T08:12:14;20.10;57.20
792;DHT22;379;49.022;12.148;2022-07-10T08:14:41;20.00;56.90
792;DHT22;379;49.022;12.148;2022-07-10T08:17:07;19.70;55.90
792;DHT22;379;49.022;12.148;2022-07-10T08:19:35;19.60;56.60
792;DHT22;379;49.022;12.148;2022-07-10T08:22:02;19.90;55.80
792;DHT22;379;49.022;12.148;2022-07-10T08:24:30;20.40;54.70
792;DHT22;379;49.022;12.148;2022-07-10T08:26:56;20.60;53.40
792;DHT22;379;49.022;12.148;2022-07-10T08:29:23;20.90;52.70
792;DHT22;379;49.022;12.148;2022-07-10T08:31:50;20.80;51.40
792;DHT22;379;49.022;12.148;2022-07-10T08:34:17;20.90;51.20
792;DHT22;379;49.022;12.148;2022-07-10T08:36:43;20.80;50.30
792;DHT22;379;49.022;12.148;2022-07-10T08:39:10;20.60;50.60
792;DHT22;379;49.022;12.148;2022-07-10T08:41:39;20.40;50.80
792;DHT22;379;49.022;12.148;2022-07-10T08:44:06;20.30;51.00
792;DHT22;379;49.022;12.148;2022-07-10T08:46:33;20.30;52.00
792;DHT22;379;49.022;12.148;2022-07-10T08:49:05;20.60;51.10
792;DHT22;379;49.022;12.148;2022-07-10T08:51:36;20.70;50.20
792;DHT22;379;49.022;12.148;2022-07-10T08:54:04;20.70;49.70
792;DHT22;379;49.022;12.148;2022-07-10T08:56:32;20.40;49.50
792;DHT22;379;49.022;12.148;2022-07-10T08:59:01;20.20;49.70
792;DHT22;379;49.022;12.148;2022-07-10T09:01:28;20.00;50.10
792;DHT22;379;49.022;12.148;2022-07-10T09:03:55;19.90;50.50
792;DHT22;379;49.022;12.148;2022-07-10T09:06:22;20.00;50.10
792;DHT22;379;49.022;12.148;2022-07-10T09:08:59;20.10;50.30
792;DHT22;379;49.022;12.148;2022-07-10T09:11:26;20.30;49.50
792;DHT22;379;49.022;12.148;2022-07-10T09:13:56;20.30;48.80
792;DHT22;379;49.022;12.148;2022-07-10T09:16:27;19.90;49.50
792;DHT22;379;49.022;12.148;2022-07-10T09:18:54;19.80;49.60
792;DHT22;379;49.022;12.148;2022-07-10T09:21:22;19.80;49.40
792;DHT22;379;49.022;12.148;2022-07-10T09:23:49;19.90;49.40
792;DHT22;379;49.022;12.148;2022-07-10T09:26:16;20.00;49.40
792;DHT22;379;49.022;12.148;2022-07-10T09:28:43;20.30;48.70
792;DHT22;379;49.022;12.148;2022-07-10T09:31:10;20.30;48.40
792;DHT22;379;49.022;12.148;2022-07-10T09:33:40;20.20;48.40
792;DHT22;379;49.022;12.148;2022-07-10T09:36:08;20.00;48.40
792;DHT22;379;49.022;12.148;2022-07-10T09:38:54;19.80;48.40
792;DHT22;379;49.022;12.148;2022-07-10T09:41:24;19.90;48.90
792;DHT22;379;49.022;12.148;2022-07-10T09:43:53;19.90;48.70
792;DHT22;379;49.022;12.148;2022-07-10T09:46:22;20.00;48.40
792;DHT22;379;49.022;12.148;2022-07-10T09:49:01;20.30;48.40
792;DHT22;379;49.022;12.148;2022-07-10T09:51:30;20.50;48.20
792;DHT22;379;49.022;12.148;2022-07-10T09:54:00;20.40;47.40
792;DHT22;379;49.022;12.148;2022-07-10T09:56:33;20.10;48.00
792;DHT22;379;49.022;12.148;2022-07-10T09:59:00;20.10;48.70
792;DHT22;379;49.022;12.148;2022-07-10T10:01:28;20.20;47.90
792;DHT22;379;49.022;12.148;2022-07-10T10:03:58;20.30;47.70
792;DHT22;379;49.022;12.148;2022-07-10T10:06:30;20.40;47.40
792;DHT22;379;49.022;12.148;2022-07-10T10:09:02;20.20;47.50
792;DHT22;379;49.022;12.148;2022-07-10T10:11:32;20.20;48.40
792;DHT22;379;49.022;12.148;2022-07-10T10:14:00;20.20;47.40
792;DHT22;379;49.022;12.148;2022-07-10T10:16:28;20.20;48.10
792;DHT22;379;49.022;12.148;2022-07-10T10:18:55;20.10;47.80
792;DHT22;379;49.022;12.148;2022-07-10T10:21:41;20.00;48.10
792;DHT22;379;49.022;12.148;2022-07-10T10:24:08;20.00;48.10
792;DHT22;379;49.022;12.148;2022-07-10T10:26:36;20.00;48.50
792;DHT22;379;49.022;12.148;2022-07-10T10:29:03;20.30;47.90
792;DHT22;379;49.022;12.148;2022-07-10T10:31:32;20.40;47.80
792;DHT22;379;49.022;12.148;2022-07-10T10:33:59;20.40;47.40
792;DHT22;379;49.022;12.148;2022-07-10T10:36:47;20.40;47.90
792;DHT22;379;49.022;12.148;2022-07-10T10:39:15;20.60;47.40
792;DHT22;379;49.022;12.148;2022-07-10T10:41:46;20.80;47.80
792;DHT22;379;49.022;12.148;2022-07-10T10:44:34;21.40;46.80
792;DHT22;379;49.022;12.148;2022-07-10T10:47:05;21.40;46.60
792;DHT22;379;49.022;12.148;2022-07-10T10:49:55;21.30;46.80
792;DHT22;379;49.022;12.148;2022-07-10T10:52:28;21.10;47.20
792;DHT22;379;49.022;12.148;2022-07-10T10:55:05;21.00;46.70
792;DHT22;379;49.022;12.148;2022-07-10T10:57:41;20.90;46.80
792;DHT22;379;49.022;12.148;2022-07-10T11:00:28;21.00;47.60
792;DHT22;379;49.022;12.148;2022-07-10T11:03:13;21.30;47.50
792;DHT22;379;49.022;12.148;2022-07-10T11:05:41;21.70;46.70
792;DHT22;379;49.022;12.148;2022-07-10T11:08:10;21.70;45.50
792;DHT22;379;49.022;12.148;2022-07-10T11:10:38;21.30;45.70
792;DHT22;379;49.022;12.148;2022-07-10T11:13:06;21.10;46.30
792;DHT22;379;49.022;12.148;2022-07-10T11:15:36;21.10;46.00
792;DHT22;379;49.022;12.148;2022-07-10T11:18:04;21.40;45.40
792;DHT22;379;49.022;12.148;2022-07-10T11:20:36;21.80;46.60
792;DHT22;379;49.022;12.148;2022-07-10T11:23:42;22.30;46.60
792;DHT22;379;49.022;12.148;2022-07-10T11:26:21;22.80;44.50
792;DHT22;379;49.022;12.148;2022-07-10T11:28:51;23.20;44.20
792;DHT22;379;49.022;12.148;2022-07-10T11:31:19;23.20;44.10
792;DHT22;379;49.022;12.148;2022-07-10T11:33:47;22.90;41.60
792;DHT22;379;49.022;12.148;2022-07-10T11:36:16;22.00;42.30
792;DHT22;379;49.022;12.148;2022-07-10T11:38:45;21.40;44.00
792;DHT22;379;49.022;12.148;2022-07-10T11:41:13;21.00;43.50
792;DHT22;379;49.022;12.148;2022-07-10T11:43:46;21.00;43.90
792;DHT22;379;49.022;12.148;2022-07-10T11:46:13;21.50;43.70
792;DHT22;379;49.022;12.148;2022-07-10T11:48:40;22.00;43.40
792;DHT22;379;49.022;12.148;2022-07-10T11:51:16;22.20;41.00
792;DHT22;379;49.022;12.148;2022-07-10T11:53:55;21.90;41.00
792;DHT22;379;49.022;12.148;2022-07-10T11:56:22;21.60;41.90
792;DHT22;379;49.022;12.148;2022-07-10T11:58:59;21.50;42.40
792;DHT22;379;49.022;12.148;2022-07-10T12:01:27;21.70;41.90
792;DHT22;379;49.022;12.148;2022-07-10T12:03:59;21.90;41.60
792;DHT22;379;49.022;12.148;2022-07-10T12:06:27;21.60;41.50
792;DHT22;379;49.022;12.148;2022-07-10T12:08:55;21.50;42.50
792;DHT22;379;49.022;12.148;2022-07-10T12:11:22;21.70;42.50
792;DHT22;379;49.022;12.148;2022-07-10T12:13:51;21.90;42.10
792;DHT22;379;49.022;12.148;2022-07-10T12:16:19;22.10;42.30
792;DHT22;379;49.022;12.148;2022-07-10T12:18:47;22.40;41.00
792;DHT22;379;49.022;12.148;2022-07-10T12:21:15;22.40;41.30
792;DHT22;379;49.022;12.148;2022-07-10T12:23:44;22.60;40.40
792;DHT22;379;49.022;12.148;2022-07-10T12:26:13;22.50;40.60
792;DHT22;379;49.022;12.148;2022-07-10T12:28:54;22.40;40.70
792;DHT22;379;49.022;12.148;2022-07-10T12:31:25;22.30;41.00
792;DHT22;379;49.022;12.148;2022-07-10T12:33:53;22.50;40.70
792;DHT22;379;49.022;12.148;2022-07-10T12:36:23;22.50;39.80
792;DHT22;379;49.022;12.148;2022-07-10T12:38:55;22.30;40.40
792;DHT22;379;49.022;12.148;2022-07-10T12:41:25;22.20;40.10
792;DHT22;379;49.022;12.148;2022-07-10T12:43:53;22.10;40.50
792;DHT22;379;49.022;12.148;2022-07-10T12:46:21;22.10;40.90
792;DHT22;379;49.022;12.148;2022-07-10T12:49:04;21.70;41.10
792;DHT22;379;49.022;12.148;2022-07-10T12:51:33;21.90;41.70
792;DHT22;379;49.022;12.148;2022-07-10T12:54:00;22.30;41.20
792;DHT22;379;49.022;12.148;2022-07-10T12:56:33;22.70;39.80
792;DHT22;379;49.022;12.148;2022-07-10T12:59:01;23.10;39.90
792;DHT22;379;49.022;12.148;2022-07-10T13:01:29;22.90;39.60
792;DHT22;379;49.022;12.148;2022-07-10T13:04:05;22.30;39.90
792;DHT22;379;49.022;12.148;2022-07-10T13:06:32;21.80;41.10
792;DHT22;379;49.022;12.148;2022-07-10T13:09:01;21.80;41.20
792;DHT22;379;49.022;12.148;2022-07-10T13:11:28;21.90;40.90
792;DHT22;379;49.022;12.148;2022-07-10T13:13:56;21.80;41.00
792;DHT22;379;49.022;12.148;2022-07-10T13:16:23;21.70;40.80
792;DHT22;379;49.022;12.148;2022-07-10T13:18:50;21.50;41.00
792;DHT22;379;49.022;12.148;2022-07-10T13:21:17;21.40;41.40
792;DHT22;379;49.022;12.148;2022-07-10T13:23:44;21.50;41.00
792;DHT22;379;49.022;12.148;2022-07-10T13:26:10;21.50;41.60
792;DHT22;379;49.022;12.148;2022-07-10T13:28:38;21.70;41.30
792;DHT22;379;49.022;12.148;2022-07-10T13:31:06;21.60;40.70
792;DHT22;379;49.022;12.148;2022-07-10T13:33:33;21.30;41.50
792;DHT22;379;49.022;12.148;2022-07-10T13:36:01;21.20;42.00
792;DHT22;379;49.022;12.148;2022-07-10T13:38:28;21.10;41.70
792;DHT22;379;49.022;12.148;2022-07-10T13:40:55;21.10;41.80
792;DHT22;379;49.022;12.148;2022-07-10T13:43:21;21.00;42.50
792;DHT22;379;49.022;12.148;2022-07-10T13:45:52;21.00;42.20
792;DHT22;379;49.022;12.148;2022-07-10T13:48:20;21.00;42.50
792;DHT22;379;49.022;12.148;2022-07-10T13:50:47;21.00;42.70
792;DHT22;379;49.022;12.148;2022-07-10T13:53:15;21.20;43.10
792;DHT22;379;49.022;12.148;2022-07-10T13:55:42;21.40;42.10
792;DHT22;379;49.022;12.148;2022-07-10T13:58:09;21.50;42.70
792;DHT22;379;49.022;12.148;2022-07-10T14:00:36;21.60;41.90
792;DHT22;379;49.022;12.148;2022-07-10T14:03:03;21.60;42.20
792;DHT22;379;49.022;12.148;2022-07-10T14:05:32;22.00;41.80
792;DHT22;379;49.022;12.148;2022-07-10T14:07:59;22.00;41.00
792;DHT22;379;49.022;12.148;2022-07-10T14:10:26;21.90;40.70
792;DHT22;379;49.022;12.148;2022-07-10T14:12:53;21.90;41.60
792;DHT22;379;49.022;12.148;2022-07-10T14:15:20;21.90;41.00
792;DHT22;379;49.022;12.148;2022-07-10T14:17:47;21.80;41.60
792;DHT22;379;49.022;12.148;2022-07-10T14:20:15;21.80;41.60
792;DHT22;379;49.022;12.148;2022-07-10T14:22:44;21.70;42.10
792;DHT22;379;49.022;12.148;2022-07-10T14:25:12;21.70;41.30
792;DHT22;379;49.022;12.148;2022-07-10T14:27:40;21.50;41.90
792;DHT22;379;49.022;12.148;2022-07-10T14:30:07;21.20;42.30
792;DHT22;379;49.022;12.148;2022-07-10T14:32:34;20.90;43.30
792;DHT22;379;49.022;12.148;2022-07-10T14:35:01;20.90;46.90
792;DHT22;379;49.022;12.148;2022-07-10T14:37:28;20.90;43.90
792;DHT22;379;49.022;12.148;2022-07-10T14:39:56;20.90;44.10
792;DHT22;379;49.022;12.148;2022-07-10T14:42:23;20.70;44.00
792;DHT22;379;49.022;12.148;2022-07-10T14:44:50;20.60;44.40
792;DHT22;379;49.022;12.148;2022-07-10T14:47:16;20.50;44.50
792;DHT22;379;49.022;12.148;2022-07-10T14:49:43;20.60;44.70
792;DHT22;379;49.022;12.148;2022-07-10T14:52:11;20.60;44.20
792;DHT22;379;49.022;12.148;2022-07-10T14:54:39;20.50;44.90
792;DHT22;379;49.022;12.148;2022-07-10T14:57:07;20.60;44.80
792;DHT22;379;49.022;12.148;2022-07-10T14:59:33;20.60;44.40
792;DHT22;379;49.022;12.148;2022-07-10T15:02:00;20.50;44.70
792;DHT22;379;49.022;12.148;2022-07-10T15:04:27;20.50;44.50
792;DHT22;379;49.022;12.148;2022-07-10T15:06:54;20.40;44.00
792;DHT22;379;49.022;12.148;2022-07-10T15:09:20;20.10;44.30
792;DHT22;379;49.022;12.148;2022-07-10T15:11:47;19.90;44.80
792;DHT22;379;49.022;12.148;2022-07-10T15:14:15;19.90;45.00
792;DHT22;379;49.022;12.148;2022-07-10T15:16:42;19.90;45.00
792;DHT22;379;49.022;12.148;2022-07-10T15:19:09;20.20;45.20
792;DHT22;379;49.022;12.148;2022-07-10T15:21:36;20.30;44.20
792;DHT22;379;49.022;12.148;2022-07-10T15:24:04;20.10;44.30
792;DHT22;379;49.022;12.148;2022-07-10T15:26:31;20.00;44.80
792;DHT22;379;49.022;12.148;2022-07-10T15:28:57;20.10;45.00
792;DHT22;379;49.022;12.148;2022-07-10T15:31:26;20.40;45.00
792;DHT22;379;49.022;12.148;2022-07-10T15:33:53;20.60;44.60
792;DHT22;379;49.022;12.148;2022-07-10T15:36:20;20.60;44.60
792;DHT22;379;49.022;12.148;2022-07-10T15:38:47;20.60;44.30
792;DHT22;379;49.022;12.148;2022-07-10T15:41:14;20.30;44.10
792;DHT22;379;49.022;12.148;2022-07-10T15:43:40;19.90;45.00
792;DHT22;379;49.022;12.148;2022-07-10T15:46:08;19.40;45.90
792;DHT22;379;49.022;12.148;2022-07-10T15:48:39;19.10;46.80
792;DHT22;379;49.022;12.148;2022-07-10T15:51:06;19.10;47.20
792;DHT22;379;49.022;12.148;2022-07-10T15:53:32;19.20;46.90
792;DHT22;379;49.022;12.148;2022-07-10T15:55:59;19.20;46.70
792;DHT22;379;49.022;12.148;2022-07-10T15:58:27;19.30;46.60
792;DHT22;379;49.022;12.148;2022-07-10T16:00:54;19.40;45.90
792;DHT22;379;49.022;12.148;2022-07-10T16:03:21;19.60;46.00
792;DHT22;379;49.022;12.148;2022-07-10T16:05:49;19.80;45.10
792;DHT22;379;49.022;12.148;2022-07-10T16:08:16;19.90;44.50
792;DHT22;379;49.022;12.148;2022-07-10T16:10:46;19.80;44.60
792;DHT22;379;49.022;12.148;2022-07-10T16:13:12;19.80;44.90
792;DHT22;379;49.022;12.148;2022-07-10T16:15:39;19.90;44.90
792;DHT22;379;49.022;12.148;2022-07-10T16:18:06;19.90;44.90
792;DHT22;379;49.022;12.148;2022-07-10T16:20:33;19.90;44.60
792;DHT22;379;49.022;12.148;2022-07-10T16:23:02;19.80;44.50